Time;durP1;ratioP1;P1;durP2;ratioP2;P2;SDS_P1;SDS_P2;PMS_P1;PMS_P2;Temp;Humidity;BMP_temperature;BMP_pressure;BME280_temperature;BME280_humidity;BME280_pressure;Samples;Min_cycle;Max_cycle;Signal;HPM_P1;HPM_P2
2023/08/23 00:01:51;;;;;;;6.53;3.47;;;;;;;14.76;100.00;102045.69;4897421;29;20032;-77
2023/08/23 00:04:16;;;;;;;5.85;3.10;;;;;;;14.73;100.00;102040.66;4897626;29;20053;-76
2023/08/23 00:06:41;;;;;;;5.32;3.30;;;;;;;14.72;100.00;102046.78;4897272;29;20033;-77
2023/08/23 00:09:07;;;;;;;5.00;3.60;;;;;;;14.60;100.00;102025.00;4897371;29;20033;-77
2023/08/23 00:11:32;;;;;;;5.35;3.83;;;;;;;14.52;100.00;102019.41;4897595;29;20032;-77
2023/08/23 00:13:57;;;;;;;5.93;3.80;;;;;;;14.66;100.00;102037.63;4897477;29;20033;-76
2023/08/23 00:16:23;;;;;;;6.38;3.70;;;;;;;14.46;100.00;101999.84;4897282;29;20387;-77
2023/08/23 00:18:50;;;;;;;5.80;3.50;;;;;;;14.63;100.00;102032.59;4897485;29;20092;-77
2023/08/23 00:21:15;;;;;;;5.07;3.45;;;;;;;14.59;100.00;102029.34;4896863;29;20024;-77
2023/08/23 00:23:40;;;;;;;5.45;3.30;;;;;;;14.57;100.00;102033.81;4897348;29;20077;-76
2023/08/23 00:26:06;;;;;;;6.10;3.80;;;;;;;14.50;100.00;102027.31;4897233;29;20044;-76
2023/08/23 00:28:31;;;;;;;5.43;3.67;;;;;;;14.45;100.00;102026.72;4897254;29;20033;-76
2023/08/23 00:30:56;;;;;;;5.93;3.65;;;;;;;14.43;100.00;102023.38;4897165;29;20082;-76
2023/08/23 00:33:22;;;;;;;4.57;3.25;;;;;;;14.42;100.00;102026.91;4897183;29;20048;-76
2023/08/23 00:35:47;;;;;;;6.00;3.75;;;;;;;14.22;100.00;101996.91;4897014;29;20041;-77
2023/08/23 00:38:13;;;;;;;4.53;3.50;;;;;;;14.29;100.00;102012.97;4897151;29;20479;-77
2023/08/23 00:40:38;;;;;;;6.15;3.72;;;;;;;14.09;100.00;101975.19;4897230;29;20055;-76
2023/08/23 00:43:06;;;;;;;7.82;4.15;;;;;;;14.28;100.00;102006.09;4897114;29;20119;-76
2023/08/23 00:45:36;;;;;;;5.57;4.07;;;;;;;14.11;100.00;101986.31;4896970;29;20116;-75
2023/08/23 00:48:05;;;;;;;5.57;3.45;;;;;;;14.24;100.00;102007.19;4880524;29;20048;-76
2023/08/23 00:50:32;;;;;;;5.68;3.72;;;;;;;14.13;100.00;101994.84;4896738;29;20037;-77
2023/08/23 00:52:58;;;;;;;6.00;3.60;;;;;;;14.19;100.00;102006.66;4880163;29;20506;-76
2023/08/23 00:55:23;;;;;;;6.40;3.70;;;;;;;14.12;100.00;101993.19;4896771;29;20055;-76
2023/08/23 00:57:52;;;;;;;5.60;3.40;;;;;;;14.13;100.00;102000.03;4897019;29;20040;-76
2023/08/23 01:00:18;;;;;;;5.18;3.25;;;;;;;13.99;100.00;101980.09;4896932;29;20080;-77
2023/08/23 01:02:43;;;;;;;8.73;3.85;;;;;;;14.02;100.00;101995.50;4897601;29;20431;-77
2023/08/23 01:05:09;;;;;;;5.88;3.38;;;;;;;13.95;100.00;101982.94;4900581;29;20056;-77
2023/08/23 01:08:02;;;;;;;6.03;3.60;;;;;;;13.95;100.00;101994.16;4900598;29;20036;-76
2023/08/23 01:10:44;;;;;;;5.40;3.53;;;;;;;14.01;100.00;102012.00;4900327;29;20095;-77
2023/08/23 01:13:36;;;;;;;6.25;3.45;;;;;;;13.98;100.00;102008.75;4900250;29;20056;-77
2023/08/23 01:16:04;;;;;;;5.70;3.95;;;;;;;13.96;100.00;102008.00;4900279;29;20120;-76
2023/08/23 01:18:31;;;;;;;4.75;3.67;;;;;;;13.75;100.00;101984.09;4900463;29;20036;-77
2023/08/23 01:20:58;;;;;;;5.38;3.58;;;;;;;13.83;100.00;102015.66;4900334;29;20029;-77
2023/08/23 01:23:25;;;;;;;6.30;3.60;;;;;;;13.82;100.00;102006.19;4900427;29;20032;-77
2023/08/23 01:25:52;;;;;;;6.82;3.80;;;;;;;13.84;100.00;102022.53;4883629;29;20067;-77
2023/08/23 01:28:18;;;;;;;5.88;3.67;;;;;;;13.82;100.00;102018.34;4900067;29;20092;-77
2023/08/23 01:30:44;;;;;;;6.60;3.90;;;;;;;13.72;100.00;101997.28;4899849;29;20025;-77
2023/08/23 01:33:27;;;;;;;7.65;3.85;;;;;;;13.77;100.00;102018.63;4899987;29;20087;-77
2023/08/23 01:36:03;;;;;;;5.65;3.53;;;;;;;13.70;100.00;102012.94;4899898;29;20033;-77
2023/08/23 01:38:30;;;;;;;5.72;3.45;;;;;;;13.69;100.00;102011.28;4900109;29;20372;-76
2023/08/23 01:40:56;;;;;;;5.93;3.67;;;;;;;13.73;100.00;102015.34;4899796;29;20040;-77
2023/08/23 01:43:22;;;;;;;5.78;3.65;;;;;;;13.65;100.00;102001.97;4899637;29;20057;-77
2023/08/23 01:45:47;;;;;;;6.18;3.65;;;;;;;13.71;100.00;102006.81;4900137;29;20491;-77
2023/08/23 01:48:13;;;;;;;6.80;3.80;;;;;;;13.69;100.00;102008.69;4899943;29;20047;-76
2023/08/23 01:50:39;;;;;;;7.82;4.00;;;;;;;13.74;100.00;102003.22;4899866;29;20475;-77
2023/08/23 01:53:05;;;;;;;6.43;3.67;;;;;;;13.68;100.00;102006.16;4899858;29;20036;-77
2023/08/23 01:55:30;;;;;;;6.93;3.88;;;;;;;13.72;100.00;102007.66;4899587;29;20027;-77
2023/08/23 01:57:55;;;;;;;5.68;3.88;;;;;;;13.64;100.00;101994.28;4899582;29;20064;-76
2023/08/23 02:00:21;;;;;;;5.60;3.90;;;;;;;13.71;100.00;102003.38;4900083;29;20100;-77
2023/08/23 02:02:46;;;;;;;5.80;4.03;;;;;;;13.67;100.00;102005.34;4899608;29;20025;-77
2023/08/23 02:05:11;;;;;;;6.05;3.95;;;;;;;13.65;100.00;101999.38;4899580;29;20101;-77
2023/08/23 02:07:37;;;;;;;6.45;3.97;;;;;;;13.61;100.00;102003.09;4899736;29;20386;-77
2023/08/23 02:10:03;;;;;;;6.10;3.85;;;;;;;13.55;100.00;101984.41;4899490;29;20032;-77
2023/08/23 02:12:28;;;;;;;4.93;3.60;;;;;;;13.46;100.00;101977.97;4899437;29;20033;-77
2023/08/23 02:14:53;;;;;;;6.65;3.83;;;;;;;13.31;100.00;101956.34;4898995;29;20059;-77
2023/08/23 02:17:18;;;;;;;9.02;4.03;;;;;;;13.52;100.00;102000.16;4899344;29;20037;-77
2023/08/23 02:19:44;;;;;;;5.55;3.63;;;;;;;13.53;100.00;102001.84;4899299;29;20100;-78
2023/08/23 02:22:09;;;;;;;5.72;3.38;;;;;;;13.49;100.00;102003.78;4899309;29;20363;-77
2023/08/23 02:24:34;;;;;;;5.50;3.78;;;;;;;13.47;100.00;101998.69;4899297;29;20116;-77
2023/08/23 02:27:00;;;;;;;5.55;3.85;;;;;;;13.35;100.00;101980.34;4898919;29;20048;-77
2023/08/23 02:29:26;;;;;;;8.43;4.30;;;;;;;13.44;100.00;102008.38;4898889;29;20056;-77
2023/08/23 02:31:53;;;;;;;5.60;4.00;;;;;;;13.41;100.00;102006.81;4898992;29;20024;-77
2023/08/23 02:34:19;;;;;;;5.68;3.65;;;;;;;13.46;100.00;102001.34;4899063;29;20035;-77
2023/08/23 02:36:44;;;;;;;5.45;3.72;;;;;;;13.46;100.00;102001.34;4898931;29;20032;-77
2023/08/23 02:39:09;;;;;;;6.65;3.70;;;;;;;13.47;100.00;101995.25;4899116;29;20375;-77
2023/08/23 02:41:35;;;;;;;7.32;4.25;;;;;;;13.48;100.00;101995.16;4898651;29;20028;-77
2023/08/23 02:44:00;;;;;;;6.53;3.90;;;;;;;13.40;100.00;101984.38;4898811;29;20172;-76
2023/08/23 02:46:25;;;;;;;7.07;3.60;;;;;;;13.34;100.00;101973.50;4898832;29;20364;-77
2023/08/23 02:48:51;;;;;;;5.72;3.92;;;;;;;13.52;100.00;101989.78;4898809;29;20040;-77
2023/08/23 02:51:16;;;;;;;8.32;4.30;;;;;;;13.51;100.00;101993.31;4898682;29;20428;-76
2023/08/23 02:53:41;;;;;;;6.72;4.43;;;;;;;13.49;100.00;101996.00;4898831;29;20104;-78
2023/08/23 02:56:07;;;;;;;7.57;3.88;;;;;;;13.46;100.00;101991.78;4898582;29;20478;-78
2023/08/23 02:58:32;;;;;;;5.47;3.28;;;;;;;13.42;100.00;101992.91;4898351;29;20495;-78
2023/08/23 03:00:58;;;;;;;7.47;3.97;;;;;;;13.39;100.00;101989.66;4898227;29;20501;-77
2023/08/23 03:03:23;;;;;;;6.25;3.90;;;;;;;13.32;100.00;101976.19;4898658;29;20056;-78
2023/08/23 03:05:56;;;;;;;9.50;3.95;;;;;;;13.30;100.00;101982.38;4898582;29;20032;-78
2023/08/23 03:08:25;;;;;;;6.03;3.92;;;;;;;13.23;100.00;101984.47;4898416;29;20039;-78
2023/08/23 03:10:51;;;;;;;7.13;4.00;;;;;;;13.15;100.00;101974.47;4898208;29;20533;-78
2023/08/23 03:13:16;;;;;;;7.13;4.30;;;;;;;13.17;100.00;101979.59;4898232;29;20072;-78
2023/08/23 03:15:42;;;;;;;9.63;4.40;;;;;;;12.99;100.00;101959.88;4898118;29;20032;-78
2023/08/23 03:18:08;;;;;;;8.00;4.40;;;;;;;13.09;100.00;101981.78;4898327;29;20116;-78
2023/08/23 03:20:33;;;;;;;6.75;4.25;;;;;;;13.06;100.00;101976.75;4898392;29;20028;-78
2023/08/23 03:22:58;;;;;;;6.75;4.55;;;;;;;12.79;100.00;101938.47;4898368;29;20958;-78
2023/08/23 03:25:24;;;;;;;7.05;4.90;;;;;;;12.93;100.00;101961.03;4897377;29;20140;-78
2023/08/23 03:27:52;;;;;;;7.15;4.65;;;;;;;13.06;100.00;101971.56;4897818;29;20072;-78
2023/08/23 03:30:18;;;;;;;7.22;4.50;;;;;;;12.98;100.00;101955.59;4897917;29;20035;-78
2023/08/23 03:32:44;;;;;;;7.55;5.40;;;;;;;12.99;100.00;101959.88;4897878;29;20032;-78
2023/08/23 03:35:09;;;;;;;7.93;5.25;;;;;;;12.95;100.00;101950.56;4910283;29;20032;-78
2023/08/23 03:37:35;;;;;;;9.55;4.90;;;;;;;13.12;100.00;101974.66;4916707;29;20039;-78
2023/08/23 03:40:00;;;;;;;7.65;5.00;;;;;;;13.16;100.00;101977.91;4916881;29;20153;-78
2023/08/23 03:42:25;;;;;;;6.50;5.05;;;;;;;13.17;100.00;101983.03;4916501;29;20131;-78
2023/08/23 03:44:51;;;;;;;7.72;4.53;;;;;;;13.18;100.00;101979.53;4916614;29;20036;-78
2023/08/23 03:47:17;;;;;;;6.38;4.47;;;;;;;13.18;100.00;101981.28;4916430;29;20039;-78
2023/08/23 03:49:42;;;;;;;6.82;5.28;;;;;;;13.00;100.00;101956.38;4916670;29;20025;-78
2023/08/23 03:52:07;;;;;;;8.10;4.88;;;;;;;13.20;100.00;101987.25;4916473;29;20020;-78
2023/08/23 03:54:33;;;;;;;7.45;4.93;;;;;;;13.17;100.00;101982.19;4916664;29;20039;-78
2023/08/23 03:56:58;;;;;;;7.45;4.90;;;;;;;13.15;100.00;101976.25;4916495;29;20036;-78
2023/08/23 03:59:23;;;;;;;6.32;4.75;;;;;;;13.19;100.00;101981.22;4916245;29;20035;-78
2023/08/23 04:01:49;;;;;;;6.85;4.50;;;;;;;13.22;100.00;101976.78;4916361;29;20367;-78
2023/08/23 04:04:14;;;;;;;7.60;4.95;;;;;;;13.01;100.00;101942.47;4916703;29;20032;-78
2023/08/23 04:06:39;;;;;;;8.07;5.18;;;;;;;13.29;100.00;101978.13;4916411;29;20020;-77
2023/08/23 04:09:05;;;;;;;6.38;4.65;;;;;;;13.29;100.00;101978.97;4916361;29;20427;-76
2023/08/23 04:11:30;;;;;;;7.70;5.07;;;;;;;13.30;100.00;101985.81;4916569;29;20083;-78
2023/08/23 04:13:58;;;;;;;7.00;4.80;;;;;;;13.27;100.00;101990.31;4916401;29;20020;-78
2023/08/23 04:16:23;;;;;;;7.03;4.78;;;;;;;13.15;100.00;101973.66;4916395;29;20048;-78
2023/08/23 04:18:49;;;;;;;5.55;4.50;;;;;;;13.02;100.00;101964.88;4916130;29;20024;-77
2023/08/23 04:21:14;;;;;;;7.03;5.00;;;;;;;13.18;100.00;101986.47;4916145;29;20050;-77
2023/08/23 04:23:39;;;;;;;6.50;4.70;;;;;;;13.13;100.00;101993.66;4916542;29;20055;-78
2023/08/23 04:26:05;;;;;;;6.43;4.80;;;;;;;12.99;100.00;101976.28;4916465;29;20116;-77
2023/08/23 04:28:30;;;;;;;7.78;5.03;;;;;;;13.05;100.00;101993.22;4916093;29;20040;-78
2023/08/23 04:31:02;;;;;;;7.55;4.72;;;;;;;12.99;100.00;101985.81;4916168;29;20152;-77
2023/08/23 04:33:27;;;;;;;6.93;5.03;;;;;;;12.90;100.00;101985.38;4915826;29;20392;-76
2023/08/23 04:35:52;;;;;;;7.47;5.35;;;;;;;12.83;100.00;101967.66;4915971;29;20028;-78
2023/08/23 04:38:18;;;;;;;8.85;5.00;;;;;;;12.72;100.00;101954.44;4902673;29;20032;-78
2023/08/23 04:40:43;;;;;;;7.45;5.32;;;;;;;12.87;100.00;101988.13;4919881;29;20083;-77
2023/08/23 04:43:09;;;;;;;8.02;5.30;;;;;;;12.77;100.00;101986.94;4919693;29;20494;-77
2023/08/23 04:45:38;;;;;;;7.70;5.63;;;;;;;12.72;100.00;101972.56;4919861;29;20028;-78
2023/08/23 04:48:04;;;;;;;7.22;4.75;;;;;;;12.85;100.00;101994.31;4919516;29;20021;-77
2023/08/23 04:50:30;;;;;;;7.03;5.13;;;;;;;12.87;100.00;101977.75;4920140;29;20099;-78
2023/08/23 04:52:55;;;;;;;6.60;5.47;;;;;;;12.92;100.00;101978.34;4919737;29;20074;-78
2023/08/23 04:55:20;;;;;;;6.15;4.63;;;;;;;12.96;100.00;101979.00;4919835;29;20363;-78
2023/08/23 04:57:46;;;;;;;10.25;5.10;;;;;;;12.96;100.00;101975.59;4919422;29;20036;-78
2023/08/23 05:00:12;;;;;;;7.38;5.05;;;;;;;13.09;100.00;101992.16;4919573;29;20036;-77
2023/08/23 05:02:38;;;;;;;10.18;5.28;;;;;;;13.12;100.00;101982.44;4919496;29;20050;-77
2023/08/23 05:05:04;;;;;;;7.18;4.65;;;;;;;13.22;100.00;101981.97;4919504;29;20028;-78
2023/08/23 05:07:30;;;;;;;6.93;4.65;;;;;;;13.29;100.00;101986.75;4919775;29;20040;-78
2023/08/23 05:09:55;;;;;;;6.65;4.88;;;;;;;13.42;100.00;101981.69;4919486;29;20082;-77
2023/08/23 05:12:20;;;;;;;7.45;5.30;;;;;;;13.49;100.00;101978.66;4919314;29;20091;-77
2023/08/23 05:14:46;;;;;;;6.43;4.85;;;;;;;13.56;100.00;101975.69;4919324;29;20024;-78
2023/08/23 05:17:11;;;;;;;8.38;5.07;;;;;;;13.64;100.00;101976.94;4918981;29;20140;-76
2023/08/23 05:19:36;;;;;;;7.78;4.80;;;;;;;13.75;100.00;101981.50;4919298;29;20102;-76
2023/08/23 05:22:01;;;;;;;8.90;4.70;;;;;;;13.91;100.00;101977.09;4919292;29;20032;-77
2023/08/23 05:24:27;;;;;;;6.80;5.07;;;;;;;13.99;100.00;101969.72;4919211;29;20159;-77
2023/08/23 05:26:52;;;;;;;7.38;4.93;;;;;;;14.17;100.00;101983.38;4919184;29;20028;-77
2023/08/23 05:29:17;;;;;;;6.60;5.07;;;;;;;14.23;100.00;101971.75;4919130;29;20094;-77
2023/08/23 05:31:43;;;;;;;7.50;4.85;;;;;;;14.33;100.00;101980.66;4918903;29;20040;-78
2023/08/23 05:34:08;;;;;;;9.07;5.25;;;;;;;14.29;100.00;101955.81;4919079;29;20039;-78
2023/08/23 05:36:33;;;;;;;7.20;5.60;;;;;;;14.34;100.00;101952.00;4918821;29;20028;-77
2023/08/23 05:39:03;;;;;;;7.93;5.70;;;;;;;14.54;100.00;101973.34;4918978;29;20103;-78
2023/08/23 05:41:28;;;;;;;9.20;5.68;;;;;;;14.66;100.00;101974.41;4918715;29;20467;-77
2023/08/23 05:43:54;;;;;;;11.48;5.85;;;;;;;14.81;100.00;101983.81;4918462;29;20143;-78
2023/08/23 05:46:19;;;;;;;9.88;6.28;;;;;;;14.88;100.00;101964.31;4918791;29;20047;-77
2023/08/23 05:48:44;;;;;;;8.55;6.07;;;;;;;15.03;100.00;101983.31;4918088;29;20435;-76
2023/08/23 05:51:10;;;;;;;9.18;6.25;;;;;;;15.17;100.00;101981.50;4918747;29;20467;-78
2023/08/23 05:53:35;;;;;;;9.10;6.35;;;;;;;15.56;100.00;101973.81;4901676;29;20028;-78
2023/08/23 05:56:00;;;;;;;8.52;5.93;;;;;;;16.15;100.00;101950.78;4918509;29;20056;-77
2023/08/23 05:58:26;;;;;;;9.50;5.38;;;;;;;16.91;100.00;101995.84;4918511;29;20487;-78
2023/08/23 06:00:52;;;;;;;9.48;5.63;;;;;;;17.74;100.00;101995.06;4918434;29;20039;-77
2023/08/23 06:03:17;;;;;;;9.10;5.30;;;;;;;18.15;97.97;102005.00;4915220;29;20032;-74
2023/08/23 06:05:43;;;;;;;6.80;5.13;;;;;;;18.58;95.44;102004.28;4899849;29;20021;-78
2023/08/23 06:08:09;;;;;;;8.40;5.35;;;;;;;18.68;92.13;101984.38;4900111;29;20080;-76
2023/08/23 06:10:35;;;;;;;7.60;5.50;;;;;;;18.60;94.75;102003.25;4899586;29;20411;-78
2023/08/23 06:13:00;;;;;;;10.05;6.30;;;;;;;19.44;92.43;101998.28;4882541;29;20043;-77
2023/08/23 06:15:26;;;;;;;10.48;6.78;;;;;;;20.64;85.92;102008.28;4899102;29;20064;-78
2023/08/23 06:17:53;;;;;;;9.90;6.38;;;;;;;21.81;79.86;102001.34;4899303;29;20053;-79
2023/08/23 06:20:18;;;;;;;10.20;6.28;;;;;;;22.73;74.42;101980.41;4899313;29;20591;-78
2023/08/23 06:22:44;;;;;;;7.78;5.35;;;;;;;23.76;70.59;102006.25;4882513;29;20115;-76
2023/08/23 06:25:09;;;;;;;7.85;5.35;;;;;;;24.56;66.39;102002.41;4898102;29;20040;-77
2023/08/23 06:27:35;;;;;;;9.27;5.85;;;;;;;25.16;63.77;102006.72;4899114;29;20029;-75
2023/08/23 06:30:02;;;;;;;8.10;4.93;;;;;;;25.56;60.81;101986.56;4899229;29;20028;-78
2023/08/23 06:32:27;;;;;;;7.28;5.10;;;;;;;26.16;58.58;102007.34;4898986;29;20028;-77
2023/08/23 06:34:53;;;;;;;7.43;5.38;;;;;;;26.54;57.18;101989.81;4899048;29;20024;-79
2023/08/23 06:37:18;;;;;;;7.13;3.95;;;;;;;27.19;56.88;102012.47;4898784;29;20120;-76
2023/08/23 06:39:44;;;;;;;6.53;4.28;;;;;;;27.61;53.50;102010.13;4881898;29;20025;-75
2023/08/23 06:42:09;;;;;;;6.05;4.32;;;;;;;27.87;52.88;102000.97;4898877;29;20523;-76
2023/08/23 06:44:35;;;;;;;6.93;4.65;;;;;;;28.18;52.04;102000.78;4898991;29;20045;-77
2023/08/23 06:47:00;;;;;;;7.38;4.70;;;;;;;28.35;50.89;101988.16;4898779;29;20120;-78
2023/08/23 06:49:25;;;;;;;7.57;4.32;;;;;;;28.60;49.57;101992.13;4898918;29;20060;-76
2023/08/23 06:51:51;;;;;;;7.30;4.13;;;;;;;28.73;48.79;102000.25;4898817;29;20029;-77
2023/08/23 06:54:16;;;;;;;6.38;3.92;;;;;;;29.08;48.30;102011.06;4898534;29;20155;-79
2023/08/23 06:56:41;;;;;;;5.93;3.40;;;;;;;29.11;47.58;101992.91;4898649;29;20028;-78
2023/08/23 06:59:07;;;;;;;7.50;4.32;;;;;;;29.33;46.91;101988.38;4898737;29;20025;-79
2023/08/23 07:01:32;;;;;;;5.55;3.58;;;;;;;29.70;46.69;102010.41;4897608;29;20035;-79
2023/08/23 07:03:57;;;;;;;7.50;4.60;;;;;;;29.75;45.73;102017.78;4898656;29;20029;-77
2023/08/23 07:06:23;;;;;;;6.05;3.78;;;;;;;29.88;45.71;102000.06;4898834;29;20029;-77
2023/08/23 07:08:48;;;;;;;7.45;3.72;;;;;;;30.05;45.23;102003.22;4916681;29;20360;-79
2023/08/23 07:11:13;;;;;;;7.35;4.18;;;;;;;30.16;43.79;102002.69;4917458;29;20506;-78
2023/08/23 07:13:39;;;;;;;7.03;4.05;;;;;;;30.20;43.70;101992.47;4917489;29;20028;-79
2023/08/23 07:16:04;;;;;;;6.93;3.97;;;;;;;29.63;44.39;102026.31;4917009;29;20115;-78
2023/08/23 07:18:30;;;;;;;5.32;3.53;;;;;;;28.06;48.39;102016.34;4917393;29;20036;-79
2023/08/23 07:20:56;;;;;;;6.55;3.33;;;;;;;26.31;52.86;102011.72;4917231;29;20084;-79
2023/08/23 07:23:21;;;;;;;5.22;3.58;;;;;;;25.09;57.93;102017.13;4906470;29;20033;-79
2023/08/23 07:25:46;;;;;;;8.93;3.58;;;;;;;24.07;62.20;102003.97;4898752;29;20493;-80
2023/08/23 07:28:12;;;;;;;7.80;5.03;;;;;;;23.28;64.68;102004.00;4881494;29;20051;-79
2023/08/23 07:30:38;;;;;;;8.15;5.10;;;;;;;22.83;68.69;102015.41;4897965;29;20054;-81
2023/08/23 07:33:05;;;;;;;7.72;3.60;;;;;;;22.46;70.44;102018.91;4898045;29;20029;-78
2023/08/23 07:35:30;;;;;;;8.35;3.45;;;;;;;22.20;73.31;102020.50;4897873;29;20032;-78
2023/08/23 07:37:55;;;;;;;9.05;4.57;;;;;;;21.99;73.86;102044.34;4897918;29;20041;-79
2023/08/23 07:40:21;;;;;;;11.13;5.20;;;;;;;21.63;75.51;102022.25;4898003;29;20024;-77
2023/08/23 07:42:46;;;;;;;8.73;3.40;;;;;;;21.58;74.79;102024.47;4881023;29;20059;-77
2023/08/23 07:45:12;;;;;;;6.65;3.30;;;;;;;21.53;77.13;102029.31;4898115;29;20027;-77
2023/08/23 07:47:47;;;;;;;9.02;5.43;;;;;;;20.84;76.32;101946.16;5109116;27;20405;-76
2023/08/23 07:50:12;;;;;;;8.25;4.85;;;;;;;20.77;77.73;101956.38;5110652;28;20032;-77
2023/08/23 07:52:40;;;;;;;8.50;5.78;;;;;;;21.23;77.88;102043.38;5110513;28;20102;-78
2023/08/23 07:55:06;;;;;;;8.80;5.53;;;;;;;21.14;81.81;102052.94;5108628;28;20035;-78
2023/08/23 07:57:31;;;;;;;9.32;5.95;;;;;;;21.08;80.29;102042.94;5110155;28;20459;-78
2023/08/23 07:59:56;;;;;;;5.93;3.42;;;;;;;21.17;79.51;102035.09;5110255;28;20027;-78
2023/08/23 08:02:24;;;;;;;6.50;3.95;;;;;;;21.13;80.00;102036.31;5110226;28;20030;-81
2023/08/23 08:04:50;;;;;;;7.38;4.07;;;;;;;21.05;80.63;102030.09;5110198;28;20033;-79
2023/08/23 08:07:15;;;;;;;6.45;3.60;;;;;;;20.98;79.95;102032.44;5110026;28;20497;-78
2023/08/23 08:09:40;;;;;;;6.60;3.75;;;;;;;21.08;81.14;102029.81;5110053;28;20030;-79
2023/08/23 08:12:06;;;;;;;6.93;4.15;;;;;;;21.09;78.37;102048.06;5109797;28;20028;-79
2023/08/23 08:14:31;;;;;;;7.70;4.82;;;;;;;21.07;79.84;102041.28;5109077;28;20065;-79
2023/08/23 08:16:56;;;;;;;9.15;5.80;;;;;;;20.98;79.10;102037.69;5110125;28;20060;-76
2023/08/23 08:19:22;;;;;;;7.50;5.07;;;;;;;20.99;82.61;102035.88;5109709;28;20020;-77
2023/08/23 08:21:47;;;;;;;7.07;4.18;;;;;;;21.04;84.61;102037.16;5109894;28;20035;-78
2023/08/23 08:24:13;;;;;;;6.70;4.70;;;;;;;21.05;80.57;102035.34;5109724;27;20426;-79
2023/08/23 08:26:38;;;;;;;7.22;5.00;;;;;;;20.95;82.79;102019.56;5109548;28;20058;-78
2023/08/23 08:29:03;;;;;;;7.75;4.78;;;;;;;20.77;82.58;101987.88;5109971;28;20023;-79
2023/08/23 08:31:29;;;;;;;6.53;4.65;;;;;;;21.11;84.12;102038.25;5109615;28;20085;-81
2023/08/23 08:33:56;;;;;;;8.35;4.97;;;;;;;21.18;82.50;102038.53;5109572;28;20030;-79
2023/08/23 08:36:22;;;;;;;7.65;4.30;;;;;;;21.16;83.52;102024.72;5109432;28;20031;-79
2023/08/23 08:38:47;;;;;;;7.60;5.20;;;;;;;21.34;81.98;102054.66;5109508;28;20479;-80
2023/08/23 08:41:13;;;;;;;8.70;5.10;;;;;;;21.27;76.41;102040.38;5109423;28;20105;-79
2023/08/23 08:43:45;;;;;;;8.10;5.38;;;;;;;20.60;79.90;101918.50;5082886;22;20050;-81
2023/08/23 08:46:23;;;;;;;7.40;4.22;;;;;;;20.48;79.29;101871.50;5049043;28;20033;-81
2023/08/23 08:48:48;;;;;;;8.05;3.72;;;;;;;21.01;77.31;101953.34;5048518;28;20025;-79
2023/08/23 08:51:19;;;;;;;7.47;4.75;;;;;;;21.46;75.24;102031.69;5048637;28;20059;-80
2023/08/23 08:53:47;;;;;;;;;;;;;;;21.46;77.12;102032.50;5049184;28;20025;-79
2023/08/23 08:56:12;;;;;;;9.80;3.85;;;;;;;21.28;81.25;101984.25;5048647;28;19913;-79
2023/08/23 08:58:38;;;;;;;7.28;3.42;;;;;;;21.57;77.93;102033.34;5038026;28;20322;-79
2023/08/23 09:01:05;;;;;;;4.65;2.08;;;;;;;21.74;83.88;102037.91;5035595;28;20104;-80
2023/08/23 09:03:31;;;;;;;6.35;3.65;;;;;;;21.70;77.63;102034.72;5035201;28;20045;-80
2023/08/23 09:05:56;;;;;;;6.25;2.92;;;;;;;21.73;76.77;102041.50;5035222;28;20036;-80
2023/08/23 09:08:22;;;;;;;7.07;3.38;;;;;;;21.64;76.10;102006.38;5035154;28;20017;-79
2023/08/23 09:10:47;;;;;;;5.68;2.78;;;;;;;21.57;77.68;101986.84;5034686;28;20026;-76
2023/08/23 09:13:12;;;;;;;7.57;4.07;;;;;;;21.89;74.07;102035.66;5017742;28;20104;-80
2023/08/23 09:15:37;;;;;;;5.43;2.65;;;;;;;21.92;74.97;102045.88;5035110;28;20043;-77
2023/08/23 09:18:03;;;;;;;5.70;3.00;;;;;;;21.75;75.30;102014.09;5035066;28;20105;-80
2023/08/23 09:20:28;;;;;;;6.78;3.58;;;;;;;21.74;73.38;102016.88;5034915;28;20084;-77
2023/08/23 09:22:55;;;;;;;8.68;4.03;;;;;;;21.95;74.89;102038.56;5034820;28;20029;-78
2023/08/23 09:25:23;;;;;;;7.63;4.55;;;;;;;21.79;76.23;101988.34;5034587;28;20036;-79
2023/08/23 09:27:48;;;;;;;5.40;3.05;;;;;;;21.92;77.69;102007.25;5016717;28;20048;-77
2023/08/23 09:30:14;;;;;;;8.20;4.35;;;;;;;22.08;75.74;102038.28;5034612;28;20017;-80
2023/08/23 09:32:43;;;;;;;8.85;3.92;;;;;;;22.06;74.66;102029.69;5034447;28;20082;-79
2023/08/23 09:35:17;;;;;;;4.40;2.97;;;;;;;22.20;75.69;102042.41;5034681;28;20572;-80
2023/08/23 09:37:47;;;;;;;7.43;4.32;;;;;;;22.14;74.20;102036.91;5034133;28;20072;-82
2023/08/23 09:40:19;;;;;;;9.27;4.90;;;;;;;22.21;72.92;102037.97;5034550;28;20056;-81
2023/08/23 09:42:45;;;;;;;7.03;3.55;;;;;;;21.96;73.71;101987.63;5034376;28;20033;-78
2023/08/23 09:45:19;;;;;;;7.82;3.60;;;;;;;22.31;76.15;102030.88;5016913;28;20032;-79
2023/08/23 09:47:48;;;;;;;8.77;4.70;;;;;;;22.19;73.87;102009.16;5034507;28;20060;-79
2023/08/23 09:50:15;;;;;;;5.88;3.10;;;;;;;;;;5034517;28;20061;-77
2023/08/23 09:52:43;;;;;;;8.15;3.80;;;;;;;22.34;75.66;102009.53;5034115;28;20080;-78
2023/08/23 09:55:13;;;;;;;5.38;3.30;;;;;;;22.47;75.91;102011.84;5034404;28;20029;-81
2023/08/23 09:57:40;;;;;;;7.75;3.35;;;;;;;22.47;74.43;102020.56;5016375;28;20485;-78
2023/08/23 10:00:07;;;;;;;6.88;3.53;;;;;;;22.58;73.73;102019.53;5034329;28;20032;-81
2023/08/23 10:02:34;;;;;;;6.63;4.13;;;;;;;22.71;73.39;102032.34;5034411;28;20017;-78
2023/08/23 10:05:01;;;;;;;7.40;3.58;;;;;;;22.55;72.80;102006.69;5034056;28;20026;-80
2023/08/23 10:07:26;;;;;;;6.63;3.92;;;;;;;22.55;73.28;101994.34;5034131;28;20033;-79
2023/08/23 10:09:52;;;;;;;7.85;4.10;;;;;;;22.73;70.78;102026.00;5033184;28;20031;-80
2023/08/23 10:12:18;;;;;;;6.68;3.63;;;;;;;22.74;71.38;102032.91;5033976;28;20029;-80
2023/08/23 10:14:46;;;;;;;6.80;2.90;;;;;;;22.90;73.19;102032.28;5034110;28;20033;-80
2023/08/23 10:17:16;;;;;;;6.13;3.22;;;;;;;22.89;69.04;102039.34;5033760;28;20025;-80
2023/08/23 10:19:47;;;;;;;6.53;3.80;;;;;;;22.68;68.38;101998.44;5033205;28;20017;-81
2023/08/23 10:22:13;;;;;;;8.77;4.55;;;;;;;22.80;69.97;102016.50;5033840;23;20056;-83
2023/08/23 10:24:38;;;;;;;8.75;4.60;;;;;;;22.80;70.17;102007.78;5033971;28;20038;-84
2023/08/23 10:27:16;;;;;;;9.82;4.68;;;;;;;22.62;70.70;101963.00;5057436;23;20410;-82
2023/08/23 10:29:42;;;;;;;11.23;4.68;;;;;;;22.60;66.80;101942.06;5113955;28;20035;-82
2023/08/23 10:32:08;;;;;;;10.30;4.78;;;;;;;22.50;70.36;101914.97;5114086;28;20028;-81
2023/08/23 10:34:38;;;;;;;8.48;4.53;;;;;;;23.17;68.91;102013.81;5102645;22;20056;-81
2023/08/23 10:37:17;;;;;;;6.53;4.32;;;;;;;23.03;69.15;101987.97;5073164;28;20036;-81
2023/08/23 10:39:48;;;;;;;10.63;5.20;;;;;;;23.40;69.55;102023.88;5055334;28;20074;-81
2023/08/23 10:42:22;;;;;;;7.07;3.95;;;;;;;23.44;69.16;102004.16;5055368;28;20468;-79
2023/08/23 10:45:09;;;;;;;10.10;4.65;;;;;;;23.69;68.68;102028.94;5073190;28;20031;-79
2023/08/23 10:47:36;;;;;;;8.68;4.97;;;;;;;23.77;67.34;102015.81;5073188;28;20119;-83
2023/08/23 10:50:06;;;;;;;9.02;4.38;;;;;;;24.00;67.91;102016.97;5072476;28;20111;-82
2023/08/23 10:52:31;;;;;;;9.05;4.40;;;;;;;24.10;63.57;102016.03;5072837;28;20060;-86
2023/08/23 10:54:57;;;;;;;8.93;5.22;;;;;;;24.07;63.17;102011.88;5054373;28;20063;-83
2023/08/23 10:57:22;;;;;;;7.97;4.65;;;;;;;24.03;63.90;102015.81;5072859;28;20024;-82
2023/08/23 10:59:48;;;;;;;8.40;4.00;;;;;;;23.89;64.71;102005.84;5054747;28;20025;-85
2023/08/23 11:02:16;;;;;;;10.23;4.93;;;;;;;23.79;63.33;102005.09;5072783;28;20482;-80
2023/08/23 11:04:44;;;;;;;10.75;5.50;;;;;;;23.62;63.30;101998.91;5072669;28;20035;-84
2023/08/23 11:07:13;;;;;;;10.15;4.78;;;;;;;23.30;67.34;101939.63;5072959;28;20031;-84
2023/08/23 11:09:38;;;;;;;9.00;4.80;;;;;;;23.25;66.30;101920.81;5072693;28;20029;-84
2023/08/23 11:12:04;;;;;;;9.65;5.45;;;;;;;23.45;65.33;101951.28;5072782;28;20361;-81
2023/08/23 11:14:29;;;;;;;10.25;5.20;;;;;;;23.75;65.83;101988.78;5072191;28;20021;-81
2023/08/23 11:16:55;;;;;;;9.52;5.20;;;;;;;23.77;64.32;101978.06;5072865;28;20373;-82
2023/08/23 11:19:21;;;;;;;8.95;5.95;;;;;;;22.78;62.18;101831.47;5085037;23;20495;-80